createdAt,value
2022-12-22T00:00:04.427Z,1020.02
2022-12-22T00:16:04.437Z,1019.78
2022-12-22T00:31:04.506Z,1019.61
2022-12-22T00:46:04.612Z,1019.48
2022-12-22T01:00:04.478Z,1019.37
2022-12-22T01:16:04.652Z,1019.24
2022-12-22T01:31:04.499Z,1019.37
2022-12-22T01:46:04.708Z,1019.24
2022-12-22T02:00:04.500Z,1019.14
2022-12-22T02:16:04.597Z,1019
2022-12-22T02:31:04.615Z,1018.9
2022-12-22T02:46:04.556Z,1018.73
2022-12-22T03:00:04.553Z,1018.6
2022-12-22T03:16:04.623Z,1018.46
2022-12-22T03:31:04.640Z,1018.53
2022-12-22T03:46:04.491Z,1018.43
2022-12-22T04:00:04.552Z,1018.36
2022-12-22T04:16:04.587Z,1018.43
2022-12-22T04:31:04.596Z,1018.49
2022-12-22T04:45:59.632Z,1018.39
2022-12-22T05:00:04.726Z,1018.22
2022-12-22T05:15:59.587Z,1018.29
2022-12-22T05:30:59.641Z,1018.09
2022-12-22T05:45:59.593Z,1018.02
2022-12-22T05:59:59.526Z,1018.22
2022-12-22T06:15:59.597Z,1018.09
2022-12-22T06:30:59.862Z,1018.05
2022-12-22T06:45:59.619Z,1018.12
2022-12-22T06:59:59.563Z,1018.22
2022-12-22T07:16:01.485Z,1018.05
2022-12-22T07:30:59.588Z,1017.68
2022-12-22T07:46:00.437Z,1017.68
2022-12-22T07:59:59.554Z,1017.68
2022-12-22T08:15:59.521Z,1017.95
2022-12-22T08:30:59.531Z,1017.95
2022-12-22T08:45:59.540Z,1017.75
2022-12-22T08:59:59.892Z,1017.85
2022-12-22T09:15:59.648Z,1017.61
2022-12-22T09:30:59.568Z,1017.61
2022-12-22T09:45:59.606Z,1017
2022-12-22T09:59:59.824Z,1016.94
2022-12-22T10:15:59.542Z,1016.83
2022-12-22T10:30:59.622Z,1016.5
2022-12-22T10:45:59.623Z,1016.53
2022-12-22T11:00:23.307Z,1016.19
2022-12-22T11:15:59.495Z,1016.26
2022-12-22T11:30:59.591Z,1016.12
2022-12-22T11:45:59.617Z,1015.99
2022-12-22T11:59:59.567Z,1015.51
2022-12-22T12:15:59.582Z,1015.21
2022-12-22T12:30:59.716Z,1014.87
2022-12-22T12:45:59.549Z,1014.97
2022-12-22T12:59:59.587Z,1014.97
2022-12-22T13:15:59.712Z,1014.67
2022-12-22T13:30:59.774Z,1014.73
2022-12-22T13:45:59.586Z,1014.94
2022-12-22T13:59:59.572Z,1015.21
2022-12-22T14:15:59.723Z,1015.24
2022-12-22T14:30:59.615Z,1015.21
2022-12-22T14:45:59.601Z,1015.24
2022-12-22T14:59:59.616Z,1015.34
2022-12-22T15:15:59.568Z,1015.62
2022-12-22T15:30:59.682Z,1015.85
2022-12-22T15:45:59.658Z,1015.99
2022-12-22T15:59:59.620Z,1015.89
2022-12-22T16:15:59.696Z,1015.95
2022-12-22T16:30:59.620Z,1016.12
2022-12-22T16:45:59.663Z,1016.02
2022-12-22T16:59:59.687Z,1016.02
2022-12-22T17:15:59.667Z,1015.99
2022-12-22T17:30:59.642Z,1016.26
2022-12-22T17:45:59.585Z,1016.5
2022-12-22T17:59:59.743Z,1016.46
2022-12-22T18:15:59.684Z,1016.7
2022-12-22T18:30:59.681Z,1016.63
2022-12-22T18:45:59.569Z,1016.66
2022-12-22T18:59:59.580Z,1016.63
2022-12-22T19:15:59.683Z,1016.7
2022-12-22T19:30:59.604Z,1016.77
2022-12-22T19:45:59.634Z,1016.94
2022-12-22T19:59:59.723Z,1017.17
2022-12-22T20:15:59.593Z,1017.11
2022-12-22T20:30:59.674Z,1016.97
2022-12-22T20:45:59.626Z,1017
2022-12-22T20:59:59.914Z,1017.17
2022-12-22T21:15:59.634Z,1017.27
2022-12-22T21:30:59.621Z,1017.38
2022-12-22T21:45:59.718Z,1017.38
2022-12-22T21:59:59.633Z,1017.17
2022-12-22T22:15:59.751Z,1016.97
2022-12-22T22:30:59.617Z,1016.87
2022-12-22T22:46:00.542Z,1016.8
2022-12-22T23:00:01.088Z,1016.63
2022-12-22T23:15:59.631Z,1016.56
2022-12-22T23:31:01.971Z,1016.36
2022-12-22T23:45:59.561Z,1016.16
2022-12-22T23:59:59.589Z,1015.78
